METAR AND TAF INFORMATION
METAR FOR LEGR
ADDS - METARS form results

(0214 UTC 27 June 2019)
Data provider http://aviationweather.gov/metar/data/
 
METAR text: LEGR 270200Z AUTO 24003KT 4500 HZ NSC 22/15 Q1017
Conditions at: LEGR (GRANADA AIRPORT , ES) observed 0200 UTC 27 June 2019
Temperature: 22.0°C (72°F)
Dewpoint: 15.0°C (59°F) [RH = 65%]
Pressure (altimeter): 30.03 inches Hg (1017.0 mb)
Winds: from the WSW (240 degrees) at 3 MPH (3 knots; 1.5 m/s)
Visibility: 2.80 miles (4.51 km)
Ceiling: at least 12,000 feet AGL
Clouds: sky clear below 12,000 feet AGL
Weather: HZ  (haze)

METAR text: LEGR 270130Z AUTO 24001KT 9999 NCD 22/15 Q1017
Conditions at: LEGR (GRANADA AIRPORT , ES) observed 0130 UTC 27 June 2019
Temperature: 22.0°C (72°F)
Dewpoint: 15.0°C (59°F) [RH = 65%]
Pressure (altimeter): 30.03 inches Hg (1017.0 mb)
Winds: from the WSW (240 degrees) at 1 MPH (1 knots; 0.5 m/s)
Visibility: 6 or more miles (10+ km)
Ceiling: at least 12,000 feet AGL
Clouds: sky clear below 12,000 feet AGL
Weather: no significant weather observed at this time

Forecast for: LEGR (GRANADA AIRPORT , ES)
Text: TAF LEGR 262000Z 2621/2721 24005KT CAVOK TX39/2715Z TN16/2705Z
Forecast period: 2100 UTC 26 June 2019 to 1000 UTC 27 June 2019
Forecast type: FROM: standard forecast or significant change
Winds: from the WSW (240 degrees) at 6 MPH (5 knots; 2.6 m/s)
Visibility: 6 or more miles 10+ km)
Ceiling: unknown
Clouds: missing
Weather: no significant weather forecast for this period
Text: BECMG 2710/2712 18010KT
Forecast period: 1000 to 1800 UTC 27 June 2019
Forecast type: BECOMING: Conditions expected to become as follows by 1200 UTC 27 June 2019
Winds: from the S (180 degrees) at 12 MPH (10 knots; 5.1 m/s)
Visibility: 6 or more miles 10+ km)
Ceiling: unknown
Clouds: missing
Weather: no significant weather forecast for this period
Text: BECMG 2718/2720 24006KT
Forecast period: 1800 to 2100 UTC 27 June 2019
Forecast type: BECOMING: Conditions expected to become as follows by 2000 UTC 27 June 2019
Winds: from the WSW (240 degrees) at 7 MPH (6 knots; 3.1 m/s)
Visibility: 6 or more miles 10+ km)
Ceiling: unknown
Clouds: missing
Weather: no significant weather forecast for this period

 AIRPORT MAP

 RUNWAY INFORMATION
Runway 09 Runway length 9514 ft Runway width 148 ft
Runway elevation 1842 ft Runway displaced threshold 0 ft Runway heading 90
Runway 27 Runway length 9514 ft Runway width 148 ft
Runway elevation 1860 ft Runway displaced threshold 0 ft Runway heading 270

 AIRPORT FREQUENCIES
Type GND Name GND Frequency 121.7 MHZ
Type TWR Name TWR Frequency 118.85 MHZ

 AIRPORT NEAR NAVIGATION AIDS
Type VOR-DME Name Granada Frequency 113400 KHZ



Powered by Virtual Airlines Manager [v2.6.2]